createdAt,value
2023-02-16T00:02:10.574Z,31.87
2023-02-16T00:04:42.575Z,30.87
2023-02-16T00:07:14.500Z,31.33
2023-02-16T00:09:46.454Z,29.87
2023-02-16T00:12:40.017Z,31.87
2023-02-16T00:15:30.413Z,31.50
2023-02-16T00:18:04.650Z,30.97
2023-02-16T00:20:36.565Z,31.53
2023-02-16T00:23:08.491Z,32.10
2023-02-16T00:25:40.915Z,31.40
2023-02-16T00:28:20.591Z,31.30
2023-02-16T00:30:52.670Z,30.63
2023-02-16T00:33:24.842Z,30.97
2023-02-16T00:35:57.462Z,32.17
2023-02-16T00:38:29.611Z,32.07
2023-02-16T00:41:01.986Z,30.23
2023-02-16T00:43:34.155Z,30.83
2023-02-16T00:46:06.171Z,31.20
2023-02-16T00:48:38.099Z,31.60
2023-02-16T00:51:24.943Z,31.93
2023-02-16T00:53:57.637Z,30.37
2023-02-16T00:56:29.575Z,31.00
2023-02-16T00:59:03.005Z,30.97
2023-02-16T01:01:36.923Z,31.30
2023-02-16T01:04:17.801Z,31.67
2023-02-16T01:07:08.597Z,31.20
2023-02-16T01:09:59.286Z,31.17
2023-02-16T01:12:31.342Z,30.17
2023-02-16T01:15:03.583Z,31.23
2023-02-16T01:17:35.561Z,31.07
2023-02-16T01:20:17.475Z,30.20
2023-02-16T01:22:50.067Z,31.17
2023-02-16T01:25:22.245Z,31.23
2023-02-16T01:27:54.387Z,30.53
2023-02-16T01:30:26.893Z,30.90
2023-02-16T01:32:59.049Z,30.93
2023-02-16T01:35:34.280Z,30.50
2023-02-16T01:38:06.439Z,30.63
2023-02-16T01:40:44.877Z,31.77
2023-02-16T01:43:32.779Z,31.83
2023-02-16T01:46:18.548Z,31.30
2023-02-16T01:48:50.557Z,30.30
2023-02-16T01:51:25.775Z,30.63
2023-02-16T01:54:29.714Z,31.23
2023-02-16T01:57:54.525Z,29.83
2023-02-16T02:00:49.946Z,30.30
2023-02-16T02:03:50.066Z,31.27
2023-02-16T02:06:33.783Z,29.97
2023-02-16T02:09:26.188Z,31.47
2023-02-16T02:12:13.943Z,30.40
2023-02-16T02:14:45.941Z,30.50
2023-02-16T02:17:21.206Z,30.80
2023-02-16T02:20:45.651Z,31.37
2023-02-16T02:24:04.606Z,29.10
2023-02-16T02:26:53.761Z,29.63
2023-02-16T02:29:56.543Z,29.70
2023-02-16T02:33:01.676Z,30.47
2023-02-16T02:35:57.386Z,30.23
2023-02-16T02:39:13.235Z,30.53
2023-02-16T02:42:19.770Z,31.10
2023-02-16T02:45:14.091Z,30.63
2023-02-16T02:47:48.323Z,30.17
2023-02-16T02:51:11.454Z,31.97
2023-02-16T02:54:14.331Z,30.17
2023-02-16T02:57:14.259Z,30.47
2023-02-16T03:00:20.617Z,30.47
2023-02-16T03:03:00.376Z,30.53
2023-02-16T03:05:36.948Z,31.80
2023-02-16T03:08:14.768Z,31.23
2023-02-16T03:11:32.562Z,31.73
2023-02-16T03:14:32.171Z,32.13
2023-02-16T03:17:35.317Z,32.37
2023-02-16T03:20:33.160Z,31.23
2023-02-16T03:23:26.789Z,32.27
2023-02-16T03:26:17.362Z,31.67
2023-02-16T03:29:09.797Z,32.43
2023-02-16T03:31:42.551Z,32.33
2023-02-16T03:34:17.627Z,31.17
2023-02-16T03:36:58.548Z,32.63
2023-02-16T03:39:32.268Z,32.70
2023-02-16T03:42:04.485Z,32.30
2023-02-16T03:44:36.461Z,31.80
2023-02-16T03:47:10.991Z,33.60
2023-02-16T03:49:42.928Z,32.50
2023-02-16T03:52:14.894Z,32.80
2023-02-16T03:54:46.849Z,32.77
2023-02-16T03:57:18.857Z,33.53
2023-02-16T03:59:51.985Z,32.63
2023-02-16T04:02:24.024Z,32.90
2023-02-16T04:04:56.082Z,32.50
2023-02-16T04:07:29.552Z,33.70
2023-02-16T04:10:03.545Z,33.67
2023-02-16T04:12:38.049Z,33.20
2023-02-16T04:15:17.156Z,34.00
2023-02-16T04:17:50.252Z,32.93
2023-02-16T04:20:27.496Z,32.73
2023-02-16T04:23:00.365Z,33.93
2023-02-16T04:25:32.396Z,33.73
2023-02-16T04:28:04.574Z,33.63
2023-02-16T04:30:36.643Z,35.03
2023-02-16T04:33:08.751Z,33.57
2023-02-16T04:35:40.707Z,33.27
2023-02-16T04:38:12.595Z,32.90
2023-02-16T04:40:44.544Z,34.03
2023-02-16T04:43:16.652Z,32.80
2023-02-16T04:45:48.725Z,32.70
2023-02-16T04:48:20.710Z,33.57
2023-02-16T04:50:52.974Z,33.90
2023-02-16T04:53:25.092Z,33.10
2023-02-16T04:55:57.018Z,32.47
2023-02-16T04:58:28.942Z,33.90
2023-02-16T05:01:00.926Z,32.87
2023-02-16T05:03:33.282Z,32.07
2023-02-16T05:06:05.637Z,33.07
2023-02-16T05:08:37.547Z,32.57
2023-02-16T05:11:28.019Z,32.63
2023-02-16T05:14:19.584Z,31.23
2023-02-16T05:16:51.768Z,31.63
2023-02-16T05:19:23.748Z,31.87
2023-02-16T05:21:55.656Z,32.20
2023-02-16T05:24:28.534Z,32.47
2023-02-16T05:27:01.679Z,32.40
2023-02-16T05:29:34.176Z,31.83
2023-02-16T05:32:06.437Z,32.20
2023-02-16T05:34:38.598Z,31.93
2023-02-16T05:37:11.458Z,31.80
2023-02-16T05:39:44.016Z,31.93
2023-02-16T05:42:15.976Z,31.77
2023-02-16T05:44:48.329Z,32.30
2023-02-16T05:47:20.226Z,30.57
2023-02-16T05:49:52.237Z,31.53
2023-02-16T05:52:24.283Z,30.93
2023-02-16T05:54:56.419Z,32.30
2023-02-16T05:57:28.480Z,31.97
2023-02-16T06:00:00.826Z,31.30
2023-02-16T06:02:32.853Z,31.27
2023-02-16T06:05:05.205Z,31.77
2023-02-16T06:07:37.188Z,31.97
2023-02-16T06:10:10.039Z,31.33
2023-02-16T06:12:43.932Z,31.33
2023-02-16T06:15:16.888Z,30.60
2023-02-16T06:17:48.846Z,30.37
2023-02-16T06:20:20.878Z,32.03
2023-02-16T06:22:52.830Z,31.60
2023-02-16T06:25:24.820Z,31.40
2023-02-16T06:27:57.030Z,31.30
2023-02-16T06:30:29.112Z,30.37
2023-02-16T06:33:04.988Z,30.97
2023-02-16T06:35:36.982Z,30.17
2023-02-16T06:38:08.923Z,29.67
2023-02-16T06:40:40.843Z,30.23
2023-02-16T06:43:12.777Z,30.13
2023-02-16T06:45:44.786Z,31.03
2023-02-16T06:48:16.781Z,30.07
2023-02-16T06:50:49.144Z,29.97
2023-02-16T06:53:21.162Z,29.77
2023-02-16T06:55:53.133Z,31.77
2023-02-16T06:58:25.014Z,31.00
2023-02-16T07:00:56.974Z,29.23
2023-02-16T07:03:29.073Z,30.07
2023-02-16T07:06:01.346Z,29.33
2023-02-16T07:08:35.675Z,29.37
2023-02-16T07:11:07.971Z,29.80
2023-02-16T07:13:40.397Z,30.00
2023-02-16T07:16:13.725Z,29.10
2023-02-16T07:18:46.619Z,30.03
2023-02-16T07:21:18.700Z,29.30
2023-02-16T07:23:50.697Z,30.03
2023-02-16T07:26:22.757Z,28.90
2023-02-16T07:28:54.744Z,28.77
2023-02-16T07:31:26.841Z,29.97
2023-02-16T07:33:59.205Z,30.67
2023-02-16T07:36:31.122Z,29.20
2023-02-16T07:39:04.383Z,29.47
2023-02-16T07:41:36.421Z,30.90
2023-02-16T07:44:08.908Z,28.33
2023-02-16T07:46:40.937Z,29.50
2023-02-16T07:49:12.878Z,29.80
2023-02-16T07:51:45.038Z,28.93
2023-02-16T07:54:17.103Z,29.80
2023-02-16T07:56:49.059Z,30.33
2023-02-16T07:59:21.006Z,30.40
2023-02-16T08:01:53.015Z,31.23
2023-02-16T08:04:25.556Z,30.50
2023-02-16T08:06:57.496Z,29.33
2023-02-16T08:09:29.465Z,30.67
2023-02-16T08:12:01.404Z,30.70
2023-02-16T08:14:33.317Z,29.73
2023-02-16T08:17:08.890Z,30.30
2023-02-16T08:19:40.987Z,29.40
2023-02-16T08:22:13.006Z,29.43
2023-02-16T08:24:45.089Z,28.93
2023-02-16T08:27:17.571Z,29.47
2023-02-16T08:29:49.561Z,29.27
2023-02-16T08:32:21.644Z,29.70
2023-02-16T08:34:53.725Z,29.43
2023-02-16T08:37:25.682Z,29.63
2023-02-16T08:40:00.772Z,29.07
2023-02-16T08:42:32.864Z,29.03
2023-02-16T08:45:06.741Z,29.47
2023-02-16T08:47:38.796Z,29.27
2023-02-16T08:50:11.580Z,29.27
2023-02-16T08:52:43.543Z,29.73
2023-02-16T08:55:15.697Z,28.77
2023-02-16T08:57:47.668Z,29.07
2023-02-16T09:00:35.645Z,29.47
2023-02-16T09:03:07.618Z,29.63
2023-02-16T09:05:40.415Z,29.07
2023-02-16T09:08:12.817Z,28.53
2023-02-16T09:10:45.222Z,29.87
2023-02-16T09:13:17.207Z,27.97
2023-02-16T09:15:49.253Z,26.73
2023-02-16T09:18:21.586Z,28.87
2023-02-16T09:20:53.520Z,28.50
2023-02-16T09:23:25.992Z,29.00
2023-02-16T09:26:02.739Z,27.23
2023-02-16T09:28:37.597Z,28.77
2023-02-16T09:31:27.201Z,28.40
2023-02-16T09:34:17.798Z,28.23
2023-02-16T09:36:50.918Z,29.60
2023-02-16T09:39:22.968Z,28.47
2023-02-16T09:42:11.360Z,29.50
2023-02-16T09:44:58.713Z,28.07
2023-02-16T09:47:35.808Z,28.30
2023-02-16T09:50:52.733Z,29.43
2023-02-16T09:53:42.811Z,28.83
2023-02-16T09:56:36.658Z,29.27
2023-02-16T09:59:44.908Z,30.70
2023-02-16T10:02:37.679Z,29.23
2023-02-16T10:05:41.431Z,29.73
2023-02-16T10:08:34.459Z,29.87
2023-02-16T10:11:46.580Z,29.30
2023-02-16T10:14:31.657Z,28.27
2023-02-16T10:17:41.954Z,28.40
2023-02-16T10:20:18.462Z,30.07
2023-02-16T10:23:11.871Z,30.07
2023-02-16T10:25:46.553Z,30.27
2023-02-16T10:28:47.963Z,29.40
2023-02-16T10:31:39.249Z,29.80
2023-02-16T10:34:38.317Z,29.47
2023-02-16T10:37:58.005Z,29.73
2023-02-16T10:41:03.606Z,35.37
2023-02-16T10:43:56.907Z,30.53
2023-02-16T10:46:39.778Z,29.73
2023-02-16T10:49:15.360Z,30.43
2023-02-16T10:51:53.029Z,30.33
2023-02-16T10:54:31.348Z,28.87
2023-02-16T10:57:06.786Z,29.73
2023-02-16T10:59:45.351Z,30.20
2023-02-16T11:02:35.508Z,30.40
2023-02-16T11:05:26.339Z,30.80
2023-02-16T11:08:01.788Z,29.87
2023-02-16T11:10:52.385Z,31.10
2023-02-16T11:13:37.265Z,29.87
2023-02-16T11:16:21.439Z,30.87
2023-02-16T11:19:01.906Z,29.93
2023-02-16T11:21:55.482Z,29.60
2023-02-16T11:24:32.056Z,30.33
2023-02-16T11:27:13.769Z,30.83
2023-02-16T11:29:45.922Z,31.50
2023-02-16T11:32:22.431Z,31.27
2023-02-16T11:34:54.580Z,30.27
2023-02-16T11:37:33.939Z,32.23
2023-02-16T11:40:23.672Z,31.07
2023-02-16T11:42:59.068Z,30.53
2023-02-16T11:45:36.244Z,31.70
2023-02-16T11:48:14.499Z,30.67
2023-02-16T11:51:05.285Z,31.17
2023-02-16T11:53:43.262Z,30.90
2023-02-16T11:56:27.924Z,29.73
2023-02-16T11:59:24.445Z,31.23
2023-02-16T12:02:36.772Z,30.53
2023-02-16T12:06:17.536Z,29.63
2023-02-16T12:08:55.422Z,29.03
2023-02-16T12:11:57.338Z,29.80
2023-02-16T12:15:02.604Z,30.53
2023-02-16T12:18:13.331Z,30.33
2023-02-16T12:21:18.269Z,29.23
2023-02-16T12:24:29.406Z,29.83
2023-02-16T12:27:27.824Z,28.87
2023-02-16T12:30:12.144Z,28.53
2023-02-16T12:33:16.442Z,28.13
2023-02-16T12:36:09.234Z,27.57
2023-02-16T12:39:09.264Z,27.30
2023-02-16T12:41:49.316Z,27.97
2023-02-16T12:44:34.234Z,27.07
2023-02-16T12:47:13.683Z,26.20
2023-02-16T12:50:22.364Z,26.07
2023-02-16T12:53:03.635Z,24.33
2023-02-16T12:56:03.735Z,24.20
2023-02-16T12:58:43.897Z,23.27
2023-02-16T13:01:43.756Z,24.13
2023-02-16T13:04:39.559Z,23.13
2023-02-16T13:07:26.467Z,21.93
2023-02-16T13:09:58.368Z,22.03
2023-02-16T13:12:54.253Z,22.70
2023-02-16T13:15:48.266Z,21.10
2023-02-16T13:18:28.476Z,21.00
2023-02-16T13:21:12.646Z,19.37
2023-02-16T13:24:11.981Z,19.73
2023-02-16T13:27:13.440Z,19.83
2023-02-16T13:30:06.490Z,19.27
2023-02-16T13:32:50.110Z,18.47
2023-02-16T13:35:47.850Z,18.10
2023-02-16T13:39:09.690Z,18.80
2023-02-16T13:42:00.161Z,18.07
2023-02-16T13:45:04.980Z,18.50
2023-02-16T13:47:40.770Z,17.60
2023-02-16T13:50:32.947Z,17.30
2023-02-16T13:53:21.207Z,17.33
2023-02-16T13:56:22.368Z,18.13
2023-02-16T13:58:56.157Z,17.40
2023-02-16T14:01:42.990Z,16.90
2023-02-16T14:04:23.969Z,16.90
2023-02-16T14:07:07.330Z,17.30
2023-02-16T14:09:39.402Z,17.63
2023-02-16T14:12:34.257Z,17.27
2023-02-16T14:15:19.727Z,17.17
2023-02-16T14:17:51.718Z,16.10
2023-02-16T14:20:23.628Z,16.87
2023-02-16T14:23:00.032Z,17.03
2023-02-16T14:25:37.612Z,16.57
2023-02-16T14:28:21.540Z,17.00
2023-02-16T14:31:02.171Z,16.43
2023-02-16T14:34:01.943Z,16.97
2023-02-16T14:36:34.601Z,17.63
2023-02-16T14:39:22.905Z,18.47
2023-02-16T14:42:07.380Z,18.07
2023-02-16T14:44:54.731Z,17.53
2023-02-16T14:47:46.657Z,17.90
2023-02-16T14:50:45.885Z,17.73
2023-02-16T14:53:47.466Z,17.80
2023-02-16T14:57:02.250Z,19.13
2023-02-16T14:59:57.384Z,19.30
2023-02-16T15:02:40.499Z,18.57
2023-02-16T15:05:26.566Z,18.73
2023-02-16T15:08:25.369Z,17.70
2023-02-16T15:10:57.383Z,17.47
2023-02-16T15:13:31.491Z,17.73
2023-02-16T15:16:05.868Z,18.13
2023-02-16T15:19:02.653Z,18.30
2023-02-16T15:21:34.638Z,18.20
2023-02-16T15:24:20.357Z,18.40
2023-02-16T15:27:01.568Z,18.27
2023-02-16T15:29:33.736Z,18.43
2023-02-16T15:32:07.192Z,18.63
2023-02-16T15:34:41.177Z,18.57
2023-02-16T15:37:37.860Z,18.60
2023-02-16T15:40:26.803Z,19.73
2023-02-16T15:43:19.224Z,19.30
2023-02-16T15:45:53.990Z,19.80
2023-02-16T15:48:39.280Z,20.37
2023-02-16T15:51:38.398Z,18.60
2023-02-16T15:54:32.142Z,20.43
2023-02-16T15:57:21.835Z,20.17
2023-02-16T16:00:21.163Z,19.23
2023-02-16T16:02:58.578Z,20.87
2023-02-16T16:05:36.229Z,19.60
2023-02-16T16:08:17.415Z,20.77
2023-02-16T16:10:49.621Z,21.27
2023-02-16T16:13:27.598Z,20.07
2023-02-16T16:16:06.823Z,19.93
2023-02-16T16:18:50.335Z,19.13
2023-02-16T16:21:34.156Z,18.90
2023-02-16T16:24:10.429Z,18.60
2023-02-16T16:26:55.837Z,17.80
2023-02-16T16:29:32.389Z,17.43
2023-02-16T16:32:06.967Z,17.37
2023-02-16T16:34:41.049Z,18.17
2023-02-16T16:37:37.372Z,18.90
2023-02-16T16:40:18.090Z,19.20
2023-02-16T16:43:14.040Z,18.60
2023-02-16T16:46:23.090Z,19.60
2023-02-16T16:49:08.138Z,19.30
2023-02-16T16:51:42.346Z,19.73
2023-02-16T16:54:33.360Z,19.63
2023-02-16T16:57:17.562Z,23.17
2023-02-16T16:59:49.899Z,21.20
2023-02-16T17:02:21.842Z,19.60
2023-02-16T17:04:53.753Z,20.40
2023-02-16T17:07:25.790Z,21.10
2023-02-16T17:09:57.740Z,19.70
2023-02-16T17:12:30.030Z,19.87
2023-02-16T17:15:03.027Z,18.83
2023-02-16T17:17:35.340Z,19.83
2023-02-16T17:20:14.850Z,20.03
2023-02-16T17:22:47.109Z,19.70
2023-02-16T17:25:19.566Z,19.10
2023-02-16T17:27:51.608Z,19.47
2023-02-16T17:30:23.762Z,19.37
2023-02-16T17:32:55.727Z,19.03
2023-02-16T17:35:28.473Z,19.47
2023-02-16T17:38:19.847Z,20.33
2023-02-16T17:40:55.623Z,18.47
2023-02-16T17:43:28.185Z,19.33
2023-02-16T17:46:04.695Z,19.07
2023-02-16T17:48:36.953Z,19.27
2023-02-16T17:51:19.340Z,19.67
2023-02-16T17:53:51.833Z,18.47
2023-02-16T17:56:25.417Z,19.70
2023-02-16T17:58:57.724Z,18.73
2023-02-16T18:01:30.025Z,19.70
2023-02-16T18:04:04.153Z,20.20
2023-02-16T18:06:36.218Z,19.60
2023-02-16T18:09:15.424Z,18.57
2023-02-16T18:11:47.653Z,19.23
2023-02-16T18:14:19.632Z,20.10
2023-02-16T18:16:53.407Z,20.97
2023-02-16T18:19:28.225Z,19.37
2023-02-16T18:22:01.332Z,19.80
2023-02-16T18:24:33.331Z,24.30
2023-02-16T18:27:05.648Z,20.60
2023-02-16T18:29:37.688Z,20.33
2023-02-16T18:32:09.719Z,20.70
2023-02-16T18:34:41.691Z,20.07
2023-02-16T18:37:13.694Z,20.97
2023-02-16T18:39:45.619Z,20.73
2023-02-16T18:42:18.148Z,20.53
2023-02-16T18:44:50.643Z,19.67
2023-02-16T18:47:22.636Z,20.00
2023-02-16T18:49:55.259Z,21.17
2023-02-16T18:52:27.294Z,21.10
2023-02-16T18:54:59.439Z,21.80
2023-02-16T18:57:31.420Z,20.07
2023-02-16T19:00:06.871Z,20.97
2023-02-16T19:02:40.912Z,20.33
2023-02-16T19:05:14.226Z,20.47
2023-02-16T19:07:46.220Z,21.13
2023-02-16T19:10:19.041Z,22.00
2023-02-16T19:12:51.395Z,21.30
2023-02-16T19:15:23.547Z,20.60
2023-02-16T19:17:55.508Z,20.53
2023-02-16T19:20:29.628Z,21.50
2023-02-16T19:23:01.699Z,21.47
2023-02-16T19:25:33.633Z,20.83
2023-02-16T19:28:05.780Z,21.73
2023-02-16T19:30:37.764Z,21.90
2023-02-16T19:33:09.752Z,22.37
2023-02-16T19:35:41.866Z,22.40
2023-02-16T19:38:14.559Z,22.27
2023-02-16T19:40:47.441Z,22.67
2023-02-16T19:43:21.214Z,22.23
2023-02-16T19:45:54.507Z,23.77
2023-02-16T19:48:26.692Z,22.73
2023-02-16T19:51:00.944Z,22.80
2023-02-16T19:53:34.088Z,23.30
2023-02-16T19:56:16.196Z,24.20
2023-02-16T19:58:50.223Z,24.33
2023-02-16T20:01:25.979Z,24.53
2023-02-16T20:04:00.127Z,23.70
2023-02-16T20:06:39.219Z,25.10
2023-02-16T20:09:14.338Z,25.93
2023-02-16T20:11:46.540Z,24.40
2023-02-16T20:14:18.610Z,25.57
2023-02-16T20:16:51.934Z,25.17
2023-02-16T20:19:23.930Z,25.80
2023-02-16T20:21:55.893Z,26.77
2023-02-16T20:24:27.890Z,25.30
2023-02-16T20:27:04.496Z,26.93
2023-02-16T20:29:36.601Z,26.27
2023-02-16T20:32:08.818Z,27.30
2023-02-16T20:34:40.972Z,28.73
2023-02-16T20:37:13.110Z,28.20
2023-02-16T20:39:46.168Z,27.73
2023-02-16T20:42:18.220Z,27.93
2023-02-16T20:44:50.194Z,28.20
2023-02-16T20:47:22.134Z,27.60
2023-02-16T20:49:54.313Z,28.63
2023-02-16T20:52:26.977Z,27.33
2023-02-16T20:54:59.120Z,28.80
2023-02-16T20:57:31.153Z,28.67
2023-02-16T21:00:13.251Z,28.67
2023-02-16T21:02:45.233Z,27.60
2023-02-16T21:05:18.791Z,27.20
2023-02-16T21:07:50.768Z,28.30
2023-02-16T21:10:22.739Z,27.03
2023-02-16T21:12:56.003Z,27.60
2023-02-16T21:15:29.320Z,28.83
2023-02-16T21:18:01.263Z,27.27
2023-02-16T21:20:33.254Z,27.17
2023-02-16T21:23:05.441Z,27.17
2023-02-16T21:25:38.149Z,26.60
2023-02-16T21:28:10.299Z,25.23
2023-02-16T21:30:43.150Z,26.07
2023-02-16T21:33:15.140Z,25.47
2023-02-16T21:35:47.454Z,25.07
2023-02-16T21:38:19.616Z,23.83
2023-02-16T21:41:09.859Z,23.97
2023-02-16T21:43:41.865Z,23.93
2023-02-16T21:46:13.943Z,23.90
2023-02-16T21:48:46.793Z,23.40
2023-02-16T21:51:26.474Z,22.67
2023-02-16T21:53:59.855Z,25.90
2023-02-16T21:56:40.707Z,22.13
2023-02-16T21:59:19.166Z,21.63
2023-02-16T22:01:51.968Z,20.40
2023-02-16T22:04:24.011Z,19.77
2023-02-16T22:06:56.107Z,19.70
2023-02-16T22:09:28.079Z,19.07
2023-02-16T22:12:00.077Z,18.20
2023-02-16T22:14:33.331Z,17.57
2023-02-16T22:17:07.631Z,18.50
2023-02-16T22:19:39.605Z,17.57
2023-02-16T22:22:11.600Z,16.90
2023-02-16T22:24:43.645Z,16.40
2023-02-16T22:27:15.612Z,16.37
2023-02-16T22:29:47.592Z,16.17
2023-02-16T22:32:19.566Z,15.93
2023-02-16T22:34:51.547Z,15.73
2023-02-16T22:37:24.102Z,14.57
2023-02-16T22:39:56.067Z,14.97
2023-02-16T22:42:28.976Z,15.00
2023-02-16T22:45:00.969Z,14.03
2023-02-16T22:47:32.931Z,14.00
2023-02-16T22:50:06.059Z,14.13
2023-02-16T22:52:38.249Z,14.30
2023-02-16T22:55:10.226Z,13.50
2023-02-16T22:57:42.180Z,13.00
2023-02-16T23:00:17.153Z,12.97
2023-02-16T23:02:49.153Z,12.30
2023-02-16T23:05:21.072Z,12.70
2023-02-16T23:07:53.028Z,12.33
2023-02-16T23:10:24.971Z,12.77
2023-02-16T23:12:56.876Z,13.20
2023-02-16T23:15:28.928Z,12.00
2023-02-16T23:18:00.877Z,12.40
2023-02-16T23:20:33.548Z,12.40
2023-02-16T23:23:05.783Z,12.33
2023-02-16T23:25:43.118Z,12.00
2023-02-16T23:28:16.204Z,12.70
2023-02-16T23:30:48.677Z,12.10
2023-02-16T23:33:20.656Z,12.77
2023-02-16T23:35:52.688Z,12.87
2023-02-16T23:38:25.292Z,13.07
2023-02-16T23:40:57.855Z,12.80
2023-02-16T23:43:31.055Z,13.03
2023-02-16T23:46:03.563Z,13.30
2023-02-16T23:48:36.169Z,13.40
2023-02-16T23:51:09.449Z,14.50
2023-02-16T23:53:43.076Z,14.60
2023-02-16T23:56:19.882Z,14.63
2023-02-16T23:58:56.394Z,14.77
